Time;durP1;ratioP1;P1;durP2;ratioP2;P2;SDS_P1;SDS_P2;PMS_P1;PMS_P2;Temp;Humidity;BMP_temperature;BMP_pressure;BME280_temperature;BME280_humidity;BME280_pressure;Samples;Min_cycle;Max_cycle;Signal;HPM_P1;HPM_P2
2023/07/16 00:01:32;;;;;;;;;;;;;;;23.69;40.46;100219.10;105346;1286;72110;-83
2023/07/16 00:04:18;;;;;;;;;;;;;;;23.66;40.50;100214.70;105412;1285;61396;-83
2023/07/16 00:07:04;;;;;;;;;;;;;;;23.65;40.41;100213.91;105259;1287;61248;-83
2023/07/16 00:09:50;;;;;;;;;;;;;;;23.62;40.47;100216.42;105326;1289;73302;-82
2023/07/16 00:12:36;;;;;;;;;;;;;;;23.60;40.56;100216.95;105372;1286;67334;-83
2023/07/16 00:15:22;;;;;;;;;;;;;;;23.59;40.64;100217.56;105325;1288;72269;-83
2023/07/16 00:18:08;;;;;;;;;;;;;;;23.58;40.62;100223.61;105293;1291;61225;-83
2023/07/16 00:20:54;;;;;;;;;;;;;;;23.58;40.57;100215.86;105330;1290;61652;-83
2023/07/16 00:23:40;;;;;;;;;;;;;;;23.59;40.61;100214.23;105190;1285;73261;-83
2023/07/16 00:26:26;;;;;;;;;;;;;;;23.58;40.72;100210.73;105270;1287;69954;-83
2023/07/16 00:29:12;;;;;;;;;;;;;;;23.59;40.66;100208.90;105337;1286;72678;-83
2023/07/16 00:31:58;;;;;;;;;;;;;;;23.59;40.80;100205.07;105249;1290;60529;-83
2023/07/16 00:34:45;;;;;;;;;;;;;;;23.58;40.72;100204.47;105241;1286;61256;-83
2023/07/16 00:37:33;;;;;;;;;;;;;;;23.56;40.64;100198.25;105288;1286;77433;-83
2023/07/16 00:40:19;;;;;;;;;;;;;;;23.56;40.71;100186.48;105370;1286;69965;-83
2023/07/16 00:43:05;;;;;;;;;;;;;;;23.54;40.82;100180.07;105226;1291;74384;-83
2023/07/16 00:45:51;;;;;;;;;;;;;;;23.51;40.90;100175.70;105339;1286;61763;-83
2023/07/16 00:48:38;;;;;;;;;;;;;;;23.50;40.81;100174.57;105387;1285;61225;-83
2023/07/16 00:51:25;;;;;;;;;;;;;;;23.48;40.90;100172.23;105269;1286;73690;-83
2023/07/16 00:54:11;;;;;;;;;;;;;;;23.48;40.82;100170.36;105233;1285;69891;-82
2023/07/16 00:56:58;;;;;;;;;;;;;;;23.47;40.89;100172.00;105317;1286;73944;-83
2023/07/16 00:59:44;;;;;;;;;;;;;;;23.47;40.96;100176.55;105305;1286;61983;-83
2023/07/16 01:02:30;;;;;;;;;;;;;;;23.45;40.83;100174.08;105387;1285;60376;-83
2023/07/16 01:05:16;;;;;;;;;;;;;;;23.44;40.95;100175.20;105271;1286;73207;-83
2023/07/16 01:08:04;;;;;;;;;;;;;;;23.43;40.96;100176.16;105250;1287;66869;-83
2023/07/16 01:10:50;;;;;;;;;;;;;;;23.42;40.93;100179.18;105339;1287;71251;-82
2023/07/16 01:13:36;;;;;;;;;;;;;;;23.41;40.95;100187.74;105331;1286;61210;-83
2023/07/16 01:16:24;;;;;;;;;;;;;;;23.40;41.15;100188.04;105430;1286;59422;-82
2023/07/16 01:19:10;;;;;;;;;;;;;;;23.38;41.13;100194.52;105334;1288;73656;-82
2023/07/16 01:21:59;;;;;;;;;;;;;;;23.36;41.14;100202.25;105371;1286;69106;-83
2023/07/16 01:25:06;;;;;;;;;;;;;;;23.35;41.19;100203.55;105377;1286;72612;-83
2023/07/16 01:28:10;;;;;;;;;;;;;;;23.34;41.27;100211.02;105338;1286;61055;-83
2023/07/16 01:30:59;;;;;;;;;;;;;;;23.31;41.24;100211.23;105266;1286;61228;-83
2023/07/16 01:33:45;;;;;;;;;;;;;;;23.30;41.36;100211.35;105358;1286;74340;-83
2023/07/16 01:36:32;;;;;;;;;;;;;;;23.26;41.41;100206.85;105453;1289;67258;-83
2023/07/16 01:39:18;;;;;;;;;;;;;;;23.19;41.46;100201.27;105341;1285;71414;-82
2023/07/16 01:42:05;;;;;;;;;;;;;;;23.09;41.60;100197.25;105194;1287;61279;-82
2023/07/16 01:44:51;;;;;;;;;;;;;;;23.03;41.72;100194.17;105371;1286;61195;-83
2023/07/16 01:47:52;;;;;;;;;;;;;;;23.01;41.78;100188.20;105322;1285;76060;-83
2023/07/16 01:50:39;;;;;;;;;;;;;;;23.05;41.82;100188.93;105335;1287;67246;-83
2023/07/16 01:53:25;;;;;;;;;;;;;;;23.07;41.85;100183.86;105352;1287;71713;-83
2023/07/16 01:56:12;;;;;;;;;;;;;;;23.08;41.86;100173.93;105365;1286;60269;-83
2023/07/16 01:58:58;;;;;;;;;;;;;;;23.06;41.80;100175.63;105263;1286;63403;-83
2023/07/16 02:01:44;;;;;;;;;;;;;;;23.05;42.04;100168.13;105226;1285;76380;-83
2023/07/16 02:04:30;;;;;;;;;;;;;;;23.05;41.95;100157.63;105329;1285;68592;-82
2023/07/16 02:07:16;;;;;;;;;;;;;;;23.03;42.07;100150.73;105294;1286;72187;-83
2023/07/16 02:10:03;;;;;;;;;;;;;;;23.02;42.10;100141.84;105345;1286;61285;-83
2023/07/16 02:12:49;;;;;;;;;;;;;;;23.02;42.13;100133.40;105317;1285;61218;-83
2023/07/16 02:15:35;;;;;;;;;;;;;;;22.97;42.30;100126.23;105314;1286;74481;-83
2023/07/16 02:18:21;;;;;;;;;;;;;;;22.91;42.29;100116.98;105360;1286;68551;-83
2023/07/16 02:21:07;;;;;;;;;;;;;;;22.89;42.34;100117.88;105176;1287;71357;-82
2023/07/16 02:23:53;;;;;;;;;;;;;;;22.91;42.43;100132.80;105340;1285;60808;-83
2023/07/16 02:26:39;;;;;;;;;;;;;;;22.91;42.53;100142.66;105349;1287;61022;-82
2023/07/16 02:29:25;;;;;;;;;;;;;;;22.92;42.69;100141.03;105293;1289;73248;-83
2023/07/16 02:32:11;;;;;;;;;;;;;;;22.94;42.67;100141.59;105295;1290;67470;-82
2023/07/16 02:34:57;;;;;;;;;;;;;;;22.96;42.61;100141.08;105305;1288;71320;-83
2023/07/16 02:37:43;;;;;;;;;;;;;;;23.00;42.76;100147.63;105226;1287;61218;-83
2023/07/16 02:40:29;;;;;;;;;;;;;;;23.03;42.90;100147.93;105332;1285;61361;-83
2023/07/16 02:43:16;;;;;;;;;;;;;;;23.05;42.70;100157.45;105324;1285;73168;-83
2023/07/16 02:46:02;;;;;;;;;;;;;;;23.06;43.01;100161.92;105326;1288;68483;-83
2023/07/16 02:48:48;;;;;;;;;;;;;;;23.06;43.01;100155.76;105237;1285;74154;-83
2023/07/16 02:51:34;;;;;;;;;;;;;;;23.05;43.19;100158.99;105234;1287;61177;-83
2023/07/16 02:54:20;;;;;;;;;;;;;;;23.05;43.18;100169.71;105307;1290;61064;-82
2023/07/16 02:57:06;;;;;;;;;;;;;;;23.04;43.20;100170.38;105419;1287;73177;-83
2023/07/16 02:59:52;;;;;;;;;;;;;;;23.04;43.34;100163.13;105183;1287;67931;-83
2023/07/16 03:02:38;;;;;;;;;;;;;;;23.05;43.23;100163.58;105356;1287;71158;-83
2023/07/16 03:05:25;;;;;;;;;;;;;;;23.05;43.34;100166.39;105286;1286;61254;-83
2023/07/16 03:08:12;;;;;;;;;;;;;;;23.04;43.36;100176.52;105322;1288;61289;-83
2023/07/16 03:10:58;;;;;;;;;;;;;;;23.04;43.43;100179.34;105343;1287;74654;-82
2023/07/16 03:13:44;;;;;;;;;;;;;;;23.04;43.52;100185.13;105388;1286;70050;-82
2023/07/16 03:16:30;;;;;;;;;;;;;;;23.03;43.59;100190.80;105384;1287;71247;-83
2023/07/16 03:19:17;;;;;;;;;;;;;;;23.05;43.79;100187.16;105324;1286;61021;-83
2023/07/16 03:22:03;;;;;;;;;;;;;;;23.07;43.71;100186.27;105382;1285;61206;-82
2023/07/16 03:24:50;;;;;;;;;;;;;;;23.10;43.70;100191.35;105394;1285;77398;-83
2023/07/16 03:27:36;;;;;;;;;;;;;;;23.11;43.79;100206.90;105349;1286;68528;-83
2023/07/16 03:30:22;;;;;;;;;;;;;;;23.11;43.83;100219.74;105469;1288;73506;-82
2023/07/16 03:33:08;;;;;;;;;;;;;;;23.12;43.88;100229.34;105432;1288;61256;-82
2023/07/16 03:35:54;;;;;;;;;;;;;;;23.13;44.11;100237.06;105401;1287;61333;-82
2023/07/16 03:38:40;;;;;;;;;;;;;;;23.16;44.03;100238.45;105492;1287;76331;-82
2023/07/16 03:41:26;;;;;;;;;;;;;;;23.21;44.12;100242.56;105477;1286;69527;-83
2023/07/16 03:44:12;;;;;;;;;;;;;;;23.26;44.07;100246.59;105347;1289;72367;-83
2023/07/16 03:46:58;;;;;;;;;;;;;;;23.32;44.12;100250.55;105423;1286;61257;-83
2023/07/16 03:49:44;;;;;;;;;;;;;;;23.37;44.13;100261.24;105495;1287;59578;-83
2023/07/16 03:52:30;;;;;;;;;;;;;;;23.41;44.08;100274.48;105400;1287;73264;-82
2023/07/16 03:55:16;;;;;;;;;;;;;;;23.40;44.32;100287.55;105312;1287;67293;-83
2023/07/16 03:58:03;;;;;;;;;;;;;;;23.40;44.33;100291.09;105398;1288;71949;-83
2023/07/16 04:00:49;;;;;;;;;;;;;;;23.39;44.42;100298.05;105318;1285;61203;-83
2023/07/16 04:03:35;;;;;;;;;;;;;;;23.40;44.28;100300.05;105371;1286;62795;-83
2023/07/16 04:06:21;;;;;;;;;;;;;;;23.42;44.36;100304.63;105297;1288;73318;-82
2023/07/16 04:09:07;;;;;;;;;;;;;;;23.46;44.52;100301.00;105452;1286;67087;-83
2023/07/16 04:11:53;;;;;;;;;;;;;;;23.49;44.68;100304.65;105370;1286;70426;-83
2023/07/16 04:14:39;;;;;;;;;;;;;;;23.57;44.72;100311.31;105444;1286;61257;-83
2023/07/16 04:17:25;;;;;;;;;;;;;;;23.69;44.77;100308.63;105432;1286;61084;-82
2023/07/16 04:20:11;;;;;;;;;;;;;;;23.78;44.75;100316.23;105323;1286;75457;-83
2023/07/16 04:22:58;;;;;;;;;;;;;;;23.83;44.86;100323.42;105292;1286;68373;-83
2023/07/16 04:25:44;;;;;;;;;;;;;;;23.87;44.85;100336.67;105374;1285;71267;-83
2023/07/16 04:28:30;;;;;;;;;;;;;;;23.92;45.00;100336.83;105376;1286;61100;-83
2023/07/16 04:31:16;;;;;;;;;;;;;;;23.97;45.00;100341.54;105355;1286;61267;-83
2023/07/16 04:34:02;;;;;;;;;;;;;;;23.99;45.04;100344.35;105355;1287;77299;-82
2023/07/16 04:36:48;;;;;;;;;;;;;;;24.02;44.98;100345.34;105358;1288;70061;-83
2023/07/16 04:39:34;;;;;;;;;;;;;;;24.08;45.09;100349.84;105418;1285;71171;-83
2023/07/16 04:42:20;;;;;;;;;;;;;;;24.14;45.08;100350.48;105286;1288;61011;-83
2023/07/16 04:45:07;;;;;;;;;;;;;;;24.19;45.13;100359.06;105418;1285;59825;-83
2023/07/16 04:47:53;;;;;;;;;;;;;;;24.26;45.17;100357.48;105423;1286;72102;-83
2023/07/16 04:50:39;;;;;;;;;;;;;;;24.33;45.30;100357.60;105463;1287;68485;-83
2023/07/16 04:53:25;;;;;;;;;;;;;;;24.42;45.21;100364.67;105359;1288;71315;-83
2023/07/16 04:56:12;;;;;;;;;;;;;;;24.51;45.33;100357.58;105387;1286;59709;-83
2023/07/16 04:58:58;;;;;;;;;;;;;;;24.61;45.32;100359.30;105314;1288;61984;-83
2023/07/16 05:01:44;;;;;;;;;;;;;;;24.70;45.39;100370.89;105435;1286;75138;-83
2023/07/16 05:04:30;;;;;;;;;;;;;;;24.81;45.37;100381.52;105424;1286;67202;-83
2023/07/16 05:07:16;;;;;;;;;;;;;;;24.92;45.47;100379.08;105343;1286;71230;-83
2023/07/16 05:10:02;;;;;;;;;;;;;;;25.00;45.38;100372.77;105190;1287;59818;-83
2023/07/16 05:12:49;;;;;;;;;;;;;;;25.09;45.47;100380.33;105404;1286;59791;-83
2023/07/16 05:15:35;;;;;;;;;;;;;;;25.28;45.50;100384.81;105248;1286;73367;-83
2023/07/16 05:18:22;;;;;;;;;;;;;;;25.65;45.61;100402.21;105238;1288;67197;-83
2023/07/16 05:21:08;;;;;;;;;;;;;;;26.24;45.40;100414.19;105471;1286;72169;-83
2023/07/16 05:23:54;;;;;;;;;;;;;;;26.93;45.18;100426.60;105344;1286;61324;-83
2023/07/16 05:26:40;;;;;;;;;;;;;;;27.63;44.87;100429.46;105321;1286;61322;-83
2023/07/16 05:29:26;;;;;;;;;;;;;;;28.20;44.74;100434.79;105360;1286;75163;-83
2023/07/16 05:32:12;;;;;;;;;;;;;;;28.79;44.59;100440.02;105470;1286;66509;-83
2023/07/16 05:34:58;;;;;;;;;;;;;;;29.35;44.33;100444.55;105418;1287;71979;-83
2023/07/16 05:37:44;;;;;;;;;;;;;;;29.84;44.06;100441.14;105477;1286;61297;-84
2023/07/16 05:40:30;;;;;;;;;;;;;;;30.25;43.90;100447.56;105405;1286;59857;-84
2023/07/16 05:43:16;;;;;;;;;;;;;;;30.64;43.63;100453.14;105383;1286;73124;-83
2023/07/16 05:46:05;;;;;;;;;;;;;;;31.07;43.68;100466.63;105399;1288;68754;-84
2023/07/16 05:48:51;;;;;;;;;;;;;;;31.59;43.41;100470.94;105415;1286;72456;-84
2023/07/16 05:51:37;;;;;;;;;;;;;;;32.09;43.19;100485.45;105471;1288;61243;-84
2023/07/16 05:54:23;;;;;;;;;;;;;;;32.41;42.73;100487.25;105491;1286;61376;-83
2023/07/16 05:57:09;;;;;;;;;;;;;;;32.14;42.68;100500.41;105484;1286;73382;-84
2023/07/16 05:59:55;;;;;;;;;;;;;;;31.88;42.45;100506.13;105401;1285;70106;-84
2023/07/16 06:02:42;;;;;;;;;;;;;;;31.64;42.25;100504.61;105327;1287;71202;-84
2023/07/16 06:05:32;;;;;;;;;;;;;;;31.44;42.35;100500.77;105463;1286;60462;-84
2023/07/16 06:08:18;;;;;;;;;;;;;;;31.41;42.18;100494.55;105472;1287;61238;-83
2023/07/16 06:11:05;;;;;;;;;;;;;;;31.28;42.06;100490.25;105475;1285;74227;-84
2023/07/16 06:13:57;;;;;;;;;;;;;;;31.16;42.01;100487.17;105464;1285;67395;-83
2023/07/16 06:16:43;;;;;;;;;;;;;;;30.96;41.91;100487.86;105487;1288;70881;-84
2023/07/16 06:19:29;;;;;;;;;;;;;;;30.74;41.79;100495.85;105438;1285;61171;-83
2023/07/16 06:22:15;;;;;;;;;;;;;;;30.38;41.58;100496.65;105416;1285;61099;-84
2023/07/16 06:25:01;;;;;;;;;;;;;;;30.11;41.81;100491.81;105425;1285;73217;-83
2023/07/16 06:27:47;;;;;;;;;;;;;;;29.93;41.87;100490.95;105520;1288;68527;-84
2023/07/16 06:30:33;;;;;;;;;;;;;;;29.83;41.84;100492.42;105395;1288;75330;-83
2023/07/16 06:33:19;;;;;;;;;;;;;;;29.81;41.87;100505.06;105340;1285;61158;-83
2023/07/16 06:36:05;;;;;;;;;;;;;;;29.81;41.88;100504.76;105411;1285;59640;-83
2023/07/16 06:38:51;;;;;;;;;;;;;;;29.77;41.87;100511.91;105479;1285;73809;-83
2023/07/16 06:41:37;;;;;;;;;;;;;;;29.64;41.74;100518.46;105458;1289;67942;-83
2023/07/16 06:44:23;;;;;;;;;;;;;;;29.52;41.89;100523.56;105335;1290;73531;-84
2023/07/16 06:47:09;;;;;;;;;;;;;;;29.42;41.71;100526.99;105388;1286;61181;-84
2023/07/16 06:49:55;;;;;;;;;;;;;;;29.35;41.97;100527.91;105420;1285;61196;-84
2023/07/16 06:52:42;;;;;;;;;;;;;;;29.31;41.87;100530.23;105460;1288;73265;-84
2023/07/16 06:55:28;;;;;;;;;;;;;;;29.26;41.92;100525.56;105466;1285;67882;-84
2023/07/16 06:58:15;;;;;;;;;;;;;;;29.12;41.77;100522.80;105451;1287;71183;-83
2023/07/16 07:01:01;;;;;;;;;;;;;;;28.95;41.99;100516.13;105456;1290;61265;-83
2023/07/16 07:03:47;;;;;;;;;;;;;;;28.75;42.01;100518.20;105360;1286;63997;-83
2023/07/16 07:06:33;;;;;;;;;;;;;;;28.57;42.26;100527.85;105128;1288;74430;-83
2023/07/16 07:09:19;;;;;;;;;;;;;;;28.40;42.27;100523.63;105535;1286;67197;-83
2023/07/16 07:12:06;;;;;;;;;;;;;;;28.23;42.29;100527.92;105352;1286;72959;-83
2023/07/16 07:14:52;;;;;;;;;;;;;;;28.10;42.38;100529.80;105466;1290;60993;-83
2023/07/16 07:17:38;;;;;;;;;;;;;;;28.04;42.55;100535.09;105494;1286;59347;-83
2023/07/16 07:20:24;;;;;;;;;;;;;;;27.99;42.59;100539.16;105453;1288;73176;-83
2023/07/16 07:23:11;;;;;;;;;;;;;;;27.98;42.63;100533.63;105505;1285;67368;-83
2023/07/16 07:25:57;;;;;;;;;;;;;;;28.05;42.77;100536.94;105357;1287;71977;-83
2023/07/16 07:28:43;;;;;;;;;;;;;;;28.09;42.75;100538.08;105412;1286;61374;-83
2023/07/16 07:31:29;;;;;;;;;;;;;;;28.04;42.80;100548.18;105368;1286;59846;-84
2023/07/16 07:34:15;;;;;;;;;;;;;;;27.92;42.84;100578.48;105339;1285;73403;-83
2023/07/16 07:37:01;;;;;;;;;;;;;;;27.79;42.82;100572.76;105234;1288;68390;-83
2023/07/16 07:39:51;;;;;;;;;;;;;;;27.66;42.89;100562.90;105420;1286;71140;-83
2023/07/16 07:42:38;;;;;;;;;;;;;;;27.52;43.04;100558.27;105376;1286;61160;-83
2023/07/16 07:45:24;;;;;;;;;;;;;;;27.37;43.13;100553.57;105425;1290;59410;-83
2023/07/16 07:48:10;;;;;;;;;;;;;;;27.25;43.24;100546.66;105263;1286;73155;-83
2023/07/16 07:50:56;;;;;;;;;;;;;;;27.16;43.38;100548.66;105333;1286;70613;-83
2023/07/16 07:53:43;;;;;;;;;;;;;;;27.10;43.57;100543.96;105421;1285;71203;-83
2023/07/16 07:56:30;;;;;;;;;;;;;;;27.07;43.59;100559.38;105406;1288;61274;-83
2023/07/16 07:59:16;;;;;;;;;;;;;;;27.07;43.66;100579.96;105335;1285;60411;-84
2023/07/16 08:02:02;;;;;;;;;;;;;;;27.07;43.65;100602.02;105404;1288;74310;-84
2023/07/16 08:04:48;;;;;;;;;;;;;;;27.06;43.81;100620.56;105413;1286;67218;-83
2023/07/16 08:07:34;;;;;;;;;;;;;;;27.01;43.89;100624.64;105426;1288;72801;-83
2023/07/16 08:10:20;;;;;;;;;;;;;;;26.99;44.00;100628.95;105376;1286;61174;-83
2023/07/16 08:13:06;;;;;;;;;;;;;;;26.98;44.10;100633.20;105314;1285;61271;-83
2023/07/16 08:15:52;;;;;;;;;;;;;;;26.89;44.08;100636.09;105383;1290;72831;-83
2023/07/16 08:18:38;;;;;;;;;;;;;;;26.80;44.30;100650.83;105375;1285;67245;-84
2023/07/16 08:21:24;;;;;;;;;;;;;;;26.73;44.48;100656.02;105390;1288;73164;-84
2023/07/16 08:24:10;;;;;;;;;;;;;;;26.68;44.58;100665.83;105341;1285;60002;-83
2023/07/16 08:26:56;;;;;;;;;;;;;;;26.57;44.63;100668.13;105328;1285;60801;-83
2023/07/16 08:29:43;;;;;;;;;;;;;;;26.47;44.85;100678.51;105394;1287;73140;-83
2023/07/16 08:32:29;;;;;;;;;;;;;;;26.41;44.98;100684.55;105387;1288;68006;-83
2023/07/16 08:35:16;;;;;;;;;;;;;;;26.37;45.13;100692.45;105371;1286;71627;-83
2023/07/16 08:38:02;;;;;;;;;;;;;;;26.30;45.32;100704.13;105407;1285;61270;-83
2023/07/16 08:40:48;;;;;;;;;;;;;;;26.23;45.34;100712.27;105442;1288;61331;-83
2023/07/16 08:43:35;;;;;;;;;;;;;;;26.16;45.36;100708.79;105340;1288;77318;-83
2023/07/16 08:46:21;;;;;;;;;;;;;;;26.09;45.66;100709.15;105341;1288;69239;-83
2023/07/16 08:49:08;;;;;;;;;;;;;;;26.02;45.71;100706.34;105361;1285;73926;-83
2023/07/16 08:51:54;;;;;;;;;;;;;;;25.95;45.98;100703.38;105359;1288;61129;-83
2023/07/16 08:54:40;;;;;;;;;;;;;;;25.91;46.04;100695.77;105429;1288;61096;-84
2023/07/16 08:57:27;;;;;;;;;;;;;;;25.86;46.36;100690.35;105432;1288;77472;-83
2023/07/16 09:00:14;;;;;;;;;;;;;;;25.82;46.63;100686.25;105244;1291;66229;-84
2023/07/16 09:03:00;;;;;;;;;;;;;;;25.84;46.91;100679.55;105301;1286;74549;-83
2023/07/16 09:05:46;;;;;;;;;;;;;;;25.88;46.95;100673.05;105399;1286;61350;-83
2023/07/16 09:08:32;;;;;;;;;;;;;;;25.91;47.17;100679.48;105446;1288;61165;-83
2023/07/16 09:11:21;;;;;;;;;;;;;;;25.91;47.24;100680.59;105423;1289;75142;-83
2023/07/16 09:14:07;;;;;;;;;;;;;;;25.95;47.31;100674.80;105420;1286;68372;-83
2023/07/16 09:16:53;;;;;;;;;;;;;;;25.95;47.37;100676.18;105422;1288;71253;-83
2023/07/16 09:19:39;;;;;;;;;;;;;;;25.92;47.45;100684.20;105401;1288;61374;-83
2023/07/16 09:22:25;;;;;;;;;;;;;;;25.90;47.56;100663.02;105386;1288;59763;-84
2023/07/16 09:25:11;;;;;;;;;;;;;;;25.79;47.68;100670.57;105367;1287;73128;-83
2023/07/16 09:28:00;;;;;;;;;;;;;;;25.71;47.95;100664.62;105408;1286;70039;-83
2023/07/16 09:30:47;;;;;;;;;;;;;;;25.69;48.01;100663.89;105233;1288;71182;-83
2023/07/16 09:33:34;;;;;;;;;;;;;;;25.65;48.28;100664.41;105335;1287;61160;-83
2023/07/16 09:36:24;;;;;;;;;;;;;;;25.63;48.51;100663.15;105294;1286;61266;-83
2023/07/16 09:39:11;;;;;;;;;;;;;;;25.63;48.52;100659.23;105266;1288;75962;-84
2023/07/16 09:41:57;;;;;;;;;;;;;;;25.64;48.62;100662.17;105391;1288;69060;-84
2023/07/16 09:44:44;;;;;;;;;;;;;;;25.68;48.82;100666.33;105252;1287;71815;-84
2023/07/16 09:47:30;;;;;;;;;;;;;;;25.79;48.97;100658.94;105306;1288;61240;-84
2023/07/16 09:50:16;;;;;;;;;;;;;;;26.01;48.81;100648.86;105433;1288;61066;-84
2023/07/16 09:53:04;;;;;;;;;;;;;;;26.24;48.81;100640.40;105315;1288;73643;-83
2023/07/16 09:55:52;;;;;;;;;;;;;;;26.52;48.80;100638.30;105501;1288;68327;-83
2023/07/16 09:58:38;;;;;;;;;;;;;;;26.77;48.56;100633.37;105440;1289;73280;-83
2023/07/16 10:01:24;;;;;;;;;;;;;;;26.97;48.50;100635.96;105387;1286;61358;-83
2023/07/16 10:04:14;;;;;;;;;;;;;;;27.18;48.54;100633.32;105464;1286;62857;-83
2023/07/16 10:07:01;;;;;;;;;;;;;;;27.41;48.38;100642.88;105327;1286;73402;-83
2023/07/16 10:09:52;;;;;;;;;;;;;;;27.54;48.23;100654.28;105415;1288;67861;-83
2023/07/16 10:12:38;;;;;;;;;;;;;;;27.59;48.10;100649.41;105411;1286;71301;-83
2023/07/16 10:15:28;;;;;;;;;;;;;;;27.64;48.19;100649.28;105404;1285;59891;-83
2023/07/16 10:18:22;;;;;;;;;;;;;;;27.78;48.10;100646.88;105499;1286;58873;-83
2023/07/16 10:21:09;;;;;;;;;;;;;;;27.82;48.08;100645.97;105380;1287;73415;-84
2023/07/16 10:23:59;;;;;;;;;;;;;;;27.86;48.09;100651.16;79513;1291;5005269;-83
2023/07/16 10:26:45;;;;;;;;;;;;;;;27.87;47.92;100649.73;105224;1291;61145;-83
2023/07/16 10:29:31;;;;;;;;;;;;;;;27.84;47.83;100650.45;105411;1290;64893;-83
2023/07/16 10:32:17;;;;;;;;;;;;;;;27.79;47.81;100651.02;105403;1287;73897;-83
2023/07/16 10:35:04;;;;;;;;;;;;;;;27.76;47.77;100651.34;105480;1285;68545;-83
2023/07/16 10:37:50;;;;;;;;;;;;;;;27.73;47.74;100653.71;105257;1286;71303;-83
2023/07/16 10:40:40;;;;;;;;;;;;;;;27.72;47.60;100653.29;105340;1286;61320;-83
2023/07/16 10:43:26;;;;;;;;;;;;;;;27.71;47.59;100653.36;105349;1286;61232;-83
2023/07/16 10:46:12;;;;;;;;;;;;;;;27.75;47.69;100650.84;105472;1286;74357;-83
2023/07/16 10:48:58;;;;;;;;;;;;;;;27.82;47.61;100654.69;105462;1286;68147;-83
2023/07/16 10:51:44;;;;;;;;;;;;;;;27.85;47.46;100658.46;105339;1286;71350;-83
2023/07/16 10:54:31;;;;;;;;;;;;;;;27.84;47.48;100662.69;105443;1286;61368;-83
2023/07/16 10:57:19;;;;;;;;;;;;;;;27.89;47.45;100664.18;105434;1285;59754;-83
2023/07/16 11:00:05;;;;;;;;;;;;;;;27.92;47.24;100660.70;105265;1286;73446;-83
2023/07/16 11:02:51;;;;;;;;;;;;;;;27.96;47.30;100660.13;105331;1288;70822;-83
2023/07/16 11:05:37;;;;;;;;;;;;;;;28.03;47.34;100664.37;105339;1285;77665;-83
2023/07/16 11:08:24;;;;;;;;;;;;;;;28.11;47.43;100662.35;105393;1285;61280;-83
2023/07/16 11:11:10;;;;;;;;;;;;;;;28.12;47.21;100660.45;105335;1288;61548;-83
2023/07/16 11:13:56;;;;;;;;;;;;;;;28.14;47.31;100666.52;105422;1287;75141;-83
2023/07/16 11:16:42;;;;;;;;;;;;;;;28.22;47.34;100668.66;105442;1287;68389;-83
2023/07/16 11:19:28;;;;;;;;;;;;;;;28.28;47.20;100666.70;105339;1287;72992;-83
2023/07/16 11:22:14;;;;;;;;;;;;;;;28.29;47.21;100665.53;105449;1289;61237;-83
2023/07/16 11:25:01;;;;;;;;;;;;;;;28.30;47.23;100661.16;105331;1287;61267;-83
2023/07/16 11:27:47;;;;;;;;;;;;;;;28.31;47.17;100656.48;105424;1286;73262;-83
2023/07/16 11:30:33;;;;;;;;;;;;;;;28.39;47.27;100657.69;105318;1288;68863;-83
2023/07/16 11:33:19;;;;;;;;;;;;;;;28.55;47.19;100650.62;105402;1291;71245;-83
2023/07/16 11:36:05;;;;;;;;;;;;;;;28.62;46.90;100654.92;105307;1286;61238;-83
2023/07/16 11:38:51;;;;;;;;;;;;;;;28.64;46.98;100652.71;105368;1286;61180;-83
2023/07/16 11:41:37;;;;;;;;;;;;;;;28.77;47.04;100656.41;105337;1288;73638;-83
2023/07/16 11:44:23;;;;;;;;;;;;;;;28.86;46.81;100655.38;105293;1286;70852;-83
2023/07/16 11:47:09;;;;;;;;;;;;;;;28.88;46.68;100657.17;105451;1290;72481;-83
2023/07/16 11:49:57;;;;;;;;;;;;;;;28.90;46.72;100660.14;105397;1289;61109;-83
2023/07/16 11:52:43;;;;;;;;;;;;;;;28.99;46.67;100659.66;105640;1287;61578;-83
2023/07/16 11:55:29;;;;;;;;;;;;;;;29.09;46.45;100661.41;105328;1286;75952;-83
2023/07/16 11:58:15;;;;;;;;;;;;;;;29.12;46.40;100659.90;105286;1286;69963;-83
2023/07/16 12:01:02;;;;;;;;;;;;;;;29.11;46.51;100661.94;105387;1291;75934;-83
2023/07/16 12:03:48;;;;;;;;;;;;;;;29.14;46.33;100662.30;105404;1287;61154;-83
2023/07/16 12:06:34;;;;;;;;;;;;;;;29.16;46.24;100666.95;105262;1286;61158;-83
2023/07/16 12:09:20;;;;;;;;;;;;;;;29.13;46.31;100663.64;105361;1288;73379;-83
2023/07/16 12:12:07;;;;;;;;;;;;;;;29.14;46.29;100658.42;105438;1289;68578;-83
2023/07/16 12:14:53;;;;;;;;;;;;;;;29.21;46.23;100660.83;105355;1288;74030;-83
2023/07/16 12:17:39;;;;;;;;;;;;;;;29.25;46.06;100663.80;105192;1288;61507;-83
2023/07/16 12:20:25;;;;;;;;;;;;;;;29.23;46.06;100663.77;105391;1287;61189;-83
2023/07/16 12:23:11;;;;;;;;;;;;;;;29.24;45.95;100659.09;105345;1289;73378;-83
2023/07/16 12:25:57;;;;;;;;;;;;;;;29.24;46.04;100661.19;105277;1288;67243;-83
2023/07/16 12:28:43;;;;;;;;;;;;;;;29.27;45.92;100661.13;105293;1286;72041;-83
2023/07/16 12:31:31;;;;;;;;;;;;;;;29.34;45.88;100662.26;105396;1286;61230;-83
2023/07/16 12:34:17;;;;;;;;;;;;;;;29.43;45.77;100662.48;105361;1288;61177;-83
2023/07/16 12:37:03;;;;;;;;;;;;;;;29.53;45.64;100663.98;105406;1287;74356;-83
2023/07/16 12:39:49;;;;;;;;;;;;;;;29.57;45.62;100654.36;105401;1289;67714;-83
2023/07/16 12:42:35;;;;;;;;;;;;;;;29.59;45.56;100657.40;105414;1289;71263;-83
2023/07/16 12:45:21;;;;;;;;;;;;;;;29.58;45.29;100656.39;105272;1287;61229;-83
2023/07/16 12:48:07;;;;;;;;;;;;;;;29.50;45.24;100658.23;105310;1286;62871;-83
2023/07/16 12:50:53;;;;;;;;;;;;;;;29.43;45.37;100661.63;105432;1286;74925;-83
2023/07/16 12:53:40;;;;;;;;;;;;;;;29.48;45.27;100659.89;105455;1286;67955;-83
2023/07/16 12:56:26;;;;;;;;;;;;;;;29.54;45.23;100657.83;105344;1286;72619;-83
2023/07/16 12:59:12;;;;;;;;;;;;;;;29.61;45.19;100652.26;105458;1286;61135;-83
2023/07/16 13:01:58;;;;;;;;;;;;;;;29.67;45.07;100655.20;105363;1286;62769;-83
2023/07/16 13:04:45;;;;;;;;;;;;;;;29.65;45.09;100653.61;105341;1289;76049;-83
2023/07/16 13:07:34;;;;;;;;;;;;;;;29.61;44.86;100655.77;105453;1290;68235;-83
2023/07/16 13:10:20;;;;;;;;;;;;;;;29.59;44.90;100652.77;105312;1286;71378;-83
2023/07/16 13:13:07;;;;;;;;;;;;;;;29.57;44.69;100651.73;105444;1286;61366;-83
2023/07/16 13:15:54;;;;;;;;;;;;;;;29.53;44.48;100647.84;105327;1286;61189;-83
2023/07/16 13:18:41;;;;;;;;;;;;;;;29.48;44.75;100646.17;105509;1287;73384;-83
2023/07/16 13:21:27;;;;;;;;;;;;;;;29.46;44.70;100644.65;105330;1286;69166;-83
2023/07/16 13:24:13;;;;;;;;;;;;;;;29.44;44.47;100646.73;105309;1286;72844;-83
2023/07/16 13:26:59;;;;;;;;;;;;;;;29.48;44.50;100645.28;105266;1286;61131;-83
2023/07/16 13:29:45;;;;;;;;;;;;;;;29.57;44.32;100643.21;105350;1287;61191;-83
2023/07/16 13:32:31;;;;;;;;;;;;;;;29.66;44.29;100641.61;105411;1291;73147;-83
2023/07/16 13:35:17;;;;;;;;;;;;;;;29.73;44.01;100641.67;105281;1286;69820;-83
2023/07/16 13:38:03;;;;;;;;;;;;;;;29.74;43.64;100642.60;105283;1287;74163;-83
2023/07/16 13:40:49;;;;;;;;;;;;;;;29.74;43.76;100637.66;105422;1290;61160;-83
2023/07/16 13:43:35;;;;;;;;;;;;;;;29.74;43.56;100636.91;105428;1286;59600;-83
2023/07/16 13:46:31;;;;;;;;;;;;;;;29.72;43.58;100641.02;105468;1288;74595;-83
2023/07/16 13:49:17;;;;;;;;;;;;;;;29.67;43.53;100642.41;105428;1287;68906;-82
2023/07/16 13:52:04;;;;;;;;;;;;;;;29.57;43.51;100653.27;105439;1286;72201;-83
2023/07/16 13:54:50;;;;;;;;;;;;;;;29.46;43.29;100654.17;105459;1291;61274;-82
2023/07/16 13:57:36;;;;;;;;;;;;;;;29.38;43.36;100649.04;105348;1291;61188;-83
2023/07/16 14:00:22;;;;;;;;;;;;;;;29.38;43.24;100649.23;105383;1289;74033;-83
2023/07/16 14:03:09;;;;;;;;;;;;;;;29.38;43.26;100642.67;105357;1286;67164;-83